^^
Station Historical Data
Daily Summary for December 07, 2017 Units:  Both    English   Metric
« Previous Day
Next Day »
Daily Weekly Monthly Yearly Custom
  High: Low: Average:
Temperature: 47.8 °F /  8.8 °C 38.1 °F /  3.4 °C 42.2 °F /  5.7 °C
Dew Point: 34.0 °F /  1.1 °C 26.6 °F /  -3 °C 29.7 °F /  -1.3 °C
Humidity: 79% 45% 62%
Wind Speed: 2.9mph /  4.7km/h - -5.1mph /  -8.2km/h
Wind Gust: 5.0mph /  8km/h - -
Wind- -
Pressure: 30.25 in /  1024.3 hPa -100.00 in /  -3386 hPa -
Precipitation: 0.00 in /  0 mm    
Historical Graphs
 
 
Tabular Data for December 07, 2017
Time Temperature Dew Point Pressure Wind Wind Speed Wind Gust Humidity Rainfall Rate (Hourly)
00:03 40.6 °F /  4.8 °C 28.2 °F /  -2.1 °C 30.23in /  1023.6hPa Calm     61% 0.00in /  0mm
00:08 40.6 °F /  4.8 °C 27.9 °F /  -2.3 °C 30.23in /  1023.6hPa Calm     60% 0.00in /  0mm
00:13 40.5 °F /  4.7 °C 28.0 °F /  -2.2 °C 30.23in /  1023.6hPa Calm     61% 0.00in /  0mm
00:18 40.5 °F /  4.7 °C 28.9 °F /  -1.7 °C 30.23in /  1023.6hPa Calm     63% 0.00in /  0mm
00:23 40.5 °F /  4.7 °C 28.0 °F /  -2.2 °C 30.23in /  1023.6hPa Calm     61% 0.00in /  0mm
00:28 40.5 °F /  4.7 °C 27.3 °F /  -2.6 °C 30.24in /  1023.9hPa Calm     59% 0.00in /  0mm
00:33 40.5 °F /  4.7 °C 28.4 °F /  -2 °C 30.23in /  1023.6hPa Calm     62% 0.00in /  0mm
00:39 40.5 °F /  4.7 °C 28.0 °F /  -2.2 °C 30.23in /  1023.6hPa Calm     61% 0.00in /  0mm
00:45 40.5 °F /  4.7 °C 28.9 °F /  -1.7 °C 30.23in /  1023.6hPa Calm     63% 0.00in /  0mm
00:50 40.5 °F /  4.7 °C 29.3 °F /  -1.5 °C 30.23in /  1023.6hPa Calm     64% 0.00in /  0mm
00:55 40.5 °F /  4.7 °C 30.0 °F /  -1.1 °C 30.23in /  1023.6hPa Calm     66% 0.00in /  0mm
01:00 40.3 °F /  4.6 °C 30.2 °F /  -1 °C 30.22in /  1023.2hPa Calm     67% 0.00in /  0mm
01:06 40.3 °F /  4.6 °C 30.6 °F /  -0.8 °C 30.22in /  1023.2hPa Calm     68% 0.00in /  0mm
01:11 40.3 °F /  4.6 °C 30.6 °F /  -0.8 °C 30.22in /  1023.2hPa Calm     68% 0.00in /  0mm
01:16 40.3 °F /  4.6 °C 29.8 °F /  -1.2 °C 30.21in /  1022.9hPa Calm     66% 0.00in /  0mm
01:21 40.3 °F /  4.6 °C 29.8 °F /  -1.2 °C 30.21in /  1022.9hPa Calm     66% 0.00in /  0mm
01:26 40.1 °F /  4.5 °C 29.7 °F /  -1.3 °C 30.22in /  1023.2hPa Calm   1.0mph /  1.6km/h 66% 0.00in /  0mm
01:31 40.1 °F /  4.5 °C 29.3 °F /  -1.5 °C 30.22in /  1023.2hPa Calm     65% 0.00in /  0mm
01:37 39.9 °F /  4.4 °C 29.1 °F /  -1.6 °C 30.22in /  1023.2hPa Calm     65% 0.00in /  0mm
01:42 39.9 °F /  4.4 °C 29.5 °F /  -1.4 °C 30.22in /  1023.2hPa Calm     66% 0.00in /  0mm
01:47 39.9 °F /  4.4 °C 29.5 °F /  -1.4 °C 30.23in /  1023.6hPa Calm     66% 0.00in /  0mm
01:52 39.9 °F /  4.4 °C 29.8 °F /  -1.2 °C 30.23in /  1023.6hPa Calm     67% 0.00in /  0mm
01:57 39.9 °F /  4.4 °C 29.5 °F /  -1.4 °C 30.23in /  1023.6hPa Calm     66% 0.00in /  0mm
02:02 40.1 °F /  4.5 °C 28.0 °F /  -2.2 °C 30.23in /  1023.6hPa Calm     62% 0.00in /  0mm
02:07 40.3 °F /  4.6 °C 29.8 °F /  -1.2 °C 30.23in /  1023.6hPa Calm     66% 0.00in /  0mm
02:12 40.3 °F /  4.6 °C 29.1 °F /  -1.6 °C 30.23in /  1023.6hPa Calm     64% 0.00in /  0mm
02:17 40.3 °F /  4.6 °C 29.8 °F /  -1.2 °C 30.23in /  1023.6hPa Calm     66% 0.00in /  0mm
02:22 40.3 °F /  4.6 °C 29.5 °F /  -1.4 °C 30.22in /  1023.2hPa Calm     65% 0.00in /  0mm
02:27 40.1 °F /  4.5 °C 28.9 °F /  -1.7 °C 30.22in /  1023.2hPa Calm     64% 0.00in /  0mm
02:33 40.1 °F /  4.5 °C 28.9 °F /  -1.7 °C 30.22in /  1023.2hPa Calm   2.0mph /  3.2km/h 64% 0.00in /  0mm
02:38 40.1 °F /  4.5 °C 28.9 °F /  -1.7 °C 30.22in /  1023.2hPa Calm     64% 0.00in /  0mm
02:43 40.1 °F /  4.5 °C 30.0 °F /  -1.1 °C 30.22in /  1023.2hPa Calm     67% 0.00in /  0mm
02:48 39.9 °F /  4.4 °C 28.8 °F /  -1.8 °C 30.22in /  1023.2hPa Calm   1.0mph /  1.6km/h 64% 0.00in /  0mm
02:53 39.9 °F /  4.4 °C 29.1 °F /  -1.6 °C 30.22in /  1023.2hPa Calm     65% 0.00in /  0mm
02:58 39.9 °F /  4.4 °C 29.5 °F /  -1.4 °C 30.23in /  1023.6hPa Calm   1.0mph /  1.6km/h 66% 0.00in /  0mm
03:08 40.1 °F /  4.5 °C 27.7 °F /  -2.4 °C 30.23in /  1023.6hPa Calm     61% 0.00in /  0mm
03:13 40.1 °F /  4.5 °C 26.6 °F /  -3 °C 30.22in /  1023.2hPa Calm     58% 0.00in /  0mm
03:18 40.5 °F /  4.7 °C 26.8 °F /  -2.9 °C 30.22in /  1023.2hPa Calm   1.0mph /  1.6km/h 58% 0.00in /  0mm
03:24 40.5 °F /  4.7 °C 26.8 °F /  -2.9 °C 30.22in /  1023.2hPa West 0.9mph /  1.4km/h 2.0mph /  3.2km/h 58% 0.00in /  0mm
03:29 40.6 °F /  4.8 °C 27.5 °F /  -2.5 °C 30.22in /  1023.2hPa Calm     59% 0.00in /  0mm
03:34 40.6 °F /  4.8 °C 27.5 °F /  -2.5 °C 30.22in /  1023.2hPa Calm   1.0mph /  1.6km/h 59% 0.00in /  0mm
03:39 40.6 °F /  4.8 °C 27.0 °F /  -2.8 °C 30.22in /  1023.2hPa Calm   4.0mph /  6.4km/h 58% 0.00in /  0mm
03:44 40.8 °F /  4.9 °C 27.1 °F /  -2.7 °C 30.22in /  1023.2hPa Calm   1.0mph /  1.6km/h 58% 0.00in /  0mm
03:50 40.8 °F /  4.9 °C 26.8 °F /  -2.9 °C 30.22in /  1023.2hPa Calm   1.0mph /  1.6km/h 57% 0.00in /  0mm
03:55 40.8 °F /  4.9 °C 27.7 °F /  -2.4 °C 30.22in /  1023.2hPa NNE 0.9mph /  1.4km/h 3.0mph /  4.8km/h 59% 0.00in /  0mm
04:00 40.8 °F /  4.9 °C 27.1 °F /  -2.7 °C 30.22in /  1023.2hPa Calm   3.0mph /  4.8km/h 58% 0.00in /  0mm
04:05 40.8 °F /  4.9 °C 27.7 °F /  -2.4 °C 30.22in /  1023.2hPa Calm     59% 0.00in /  0mm
04:10 40.6 °F /  4.8 °C 28.6 °F /  -1.9 °C 30.22in /  1023.2hPa Calm     62% 0.00in /  0mm
04:15 40.6 °F /  4.8 °C 27.5 °F /  -2.5 °C 30.22in /  1023.2hPa Calm     59% 0.00in /  0mm
04:20 40.5 °F /  4.7 °C 27.3 °F /  -2.6 °C 30.22in /  1023.2hPa Calm     59% 0.00in /  0mm
04:25 40.5 °F /  4.7 °C 27.7 °F /  -2.4 °C 30.21in /  1022.9hPa Calm     60% 0.00in /  0mm
04:29 40.5 °F /  4.7 °C 28.0 °F /  -2.2 °C 30.21in /  1022.9hPa Calm     61% 0.00in /  0mm
04:34 40.3 °F /  4.6 °C 27.9 °F /  -2.3 °C 30.21in /  1022.9hPa Calm     61% 0.00in /  0mm
04:39 40.3 °F /  4.6 °C 28.2 °F /  -2.1 °C 30.21in /  1022.9hPa Calm   1.0mph /  1.6km/h 62% 0.00in /  0mm
04:45 40.3 °F /  4.6 °C 27.9 °F /  -2.3 °C 30.22in /  1023.2hPa Calm   2.0mph /  3.2km/h 61% 0.00in /  0mm
04:50 40.3 °F /  4.6 °C 27.9 °F /  -2.3 °C 30.22in /  1023.2hPa Calm   1.0mph /  1.6km/h 61% 0.00in /  0mm
04:55 40.5 °F /  4.7 °C 26.8 °F /  -2.9 °C 30.22in /  1023.2hPa Calm     58% 0.00in /  0mm
05:00 40.5 °F /  4.7 °C 27.7 °F /  -2.4 °C 30.22in /  1023.2hPa Calm     60% 0.00in /  0mm
05:05 40.5 °F /  4.7 °C 27.7 °F /  -2.4 °C 30.21in /  1022.9hPa Calm   3.0mph /  4.8km/h 60% 0.00in /  0mm
05:10 40.5 °F /  4.7 °C 27.3 °F /  -2.6 °C 30.20in /  1022.6hPa Calm     59% 0.00in /  0mm
05:15 40.5 °F /  4.7 °C 28.0 °F /  -2.2 °C 30.20in /  1022.6hPa NNW 0.9mph /  1.4km/h 1.0mph /  1.6km/h 61% 0.00in /  0mm
05:20 40.5 °F /  4.7 °C 27.3 °F /  -2.6 °C 30.20in /  1022.6hPa Calm     59% 0.00in /  0mm
05:26 40.5 °F /  4.7 °C 26.8 °F /  -2.9 °C 30.20in /  1022.6hPa WNW 2.9mph /  4.7km/h 3.0mph /  4.8km/h 58% 0.00in /  0mm
05:31 40.5 °F /  4.7 °C 27.7 °F /  -2.4 °C 30.20in /  1022.6hPa Calm   1.0mph /  1.6km/h 60% 0.00in /  0mm
05:37 40.6 °F /  4.8 °C 29.1 °F /  -1.6 °C 30.21in /  1022.9hPa Calm     63% 0.00in /  0mm
05:43 40.5 °F /  4.7 °C 27.7 °F /  -2.4 °C 30.20in /  1022.6hPa Calm   -999.0mph /  -1607.7km/h 60% 0.00in /  0mm
05:48 40.5 °F /  4.7 °C 27.7 °F /  -2.4 °C 30.20in /  1022.6hPa Calm     60% 0.00in /  0mm
05:54 40.5 °F /  4.7 °C 28.0 °F /  -2.2 °C 30.20in /  1022.6hPa Calm     61% 0.00in /  0mm
05:59 40.3 °F /  4.6 °C 27.5 °F /  -2.5 °C 30.20in /  1022.6hPa Calm   1.0mph /  1.6km/h 60% 0.00in /  0mm
06:16 40.1 °F /  4.5 °C 28.6 °F /  -1.9 °C 30.21in /  1022.9hPa Calm   -999.0mph /  -1607.7km/h 63% 0.00in /  0mm
06:22 39.9 °F /  4.4 °C 28.8 °F /  -1.8 °C 30.21in /  1022.9hPa Calm     64% 0.00in /  0mm
06:37 39.7 °F /  4.3 °C 28.9 °F /  -1.7 °C 30.21in /  1022.9hPa Calm     65% 0in /  0mm
06:59 39.2 °F /  4 °C 29.5 °F /  -1.4 °C 30.21in /  1022.9hPa Calm     68% 0in /  0mm
07:13 39.2 °F /  4 °C 28.4 °F /  -2 °C -100.00in /  -3386hPa North -999.9mph /  -1609.1km/h -999.0mph /  -1607.7km/h 65% 0.00in /  0mm
07:56 38.8 °F /  3.8 °C 31.3 °F /  -0.4 °C 30.21in /  1022.9hPa Calm     74% 0.00in /  0mm
08:24 38.1 °F /  3.4 °C 30.9 °F /  -0.6 °C 30.23in /  1023.6hPa Calm     75% 0in /  0mm
08:49 38.7 °F /  3.7 °C 31.8 °F /  -0.1 °C 30.23in /  1023.6hPa Calm     76% 0in /  0mm
09:49 41.4 °F /  5.2 °C 28.9 °F /  -1.7 °C 30.24in /  1023.9hPa Calm     61% 0in /  0mm
09:54 41.5 °F /  5.3 °C 29.5 °F /  -1.4 °C 30.25in /  1024.3hPa Calm     62% 0.00in /  0mm
09:59 41.7 °F /  5.4 °C 29.3 °F /  -1.5 °C 30.25in /  1024.3hPa NNW 0.9mph /  1.4km/h 3.0mph /  4.8km/h 61% 0.00in /  0mm
10:18 42.4 °F /  5.8 °C 30.0 °F /  -1.1 °C 30.25in /  1024.3hPa Calm     61% 0.00in /  0mm
10:24 42.6 °F /  5.9 °C 29.7 °F /  -1.3 °C 30.25in /  1024.3hPa Calm     60% 0.00in /  0mm
10:34 43.0 °F /  6.1 °C 29.3 °F /  -1.5 °C 30.24in /  1023.9hPa Calm     58% 0.00in /  0mm
10:39 43.2 °F /  6.2 °C 29.3 °F /  -1.5 °C 30.24in /  1023.9hPa Calm     58% 0.00in /  0mm
10:44 43.3 °F /  6.3 °C 28.8 °F /  -1.8 °C 30.24in /  1023.9hPa NW 0.9mph /  1.4km/h 3.0mph /  4.8km/h 56% 0.00in /  0mm
10:49 43.5 °F /  6.4 °C 28.9 °F /  -1.7 °C 30.24in /  1023.9hPa Calm     56% 0.00in /  0mm
11:02 44.2 °F /  6.8 °C 28.6 °F /  -1.9 °C 30.25in /  1024.3hPa Calm     54% 0.00in /  0mm
11:13 45.1 °F /  7.3 °C 28.6 °F /  -1.9 °C 30.25in /  1024.3hPa Calm     52% 0.00in /  0mm
11:18 45.3 °F /  7.4 °C 28.2 °F /  -2.1 °C 30.25in /  1024.3hPa WSW 0.9mph /  1.4km/h 4.0mph /  6.4km/h 51% 0.00in /  0mm
11:28 46.0 °F /  7.8 °C 27.9 °F /  -2.3 °C 30.24in /  1023.9hPa WNW 2.0mph /  3.2km/h 5.0mph /  8km/h 49% 0.00in /  0mm
11:33 46.2 °F /  7.9 °C 28.0 °F /  -2.2 °C 30.24in /  1023.9hPa Calm   3.0mph /  4.8km/h 49% 0.00in /  0mm
11:38 46.2 °F /  7.9 °C 27.7 °F /  -2.4 °C 30.24in /  1023.9hPa Calm   3.0mph /  4.8km/h 48% 0.00in /  0mm
11:43 46.2 °F /  7.9 °C 27.7 °F /  -2.4 °C 30.24in /  1023.9hPa NW 0.9mph /  1.4km/h 3.0mph /  4.8km/h 48% 0.00in /  0mm
11:53 46.2 °F /  7.9 °C 28.0 °F /  -2.2 °C 30.24in /  1023.9hPa NW 2.0mph /  3.2km/h 2.0mph /  3.2km/h 49% 0.00in /  0mm
11:58 46.0 °F /  7.8 °C 28.4 °F /  -2 °C 30.24in /  1023.9hPa Calm     50% 0.00in /  0mm
12:03 46.2 °F /  7.9 °C 28.6 °F /  -1.9 °C 30.23in /  1023.6hPa Calm   1.0mph /  1.6km/h 50% 0.00in /  0mm
12:08 46.2 °F /  7.9 °C 28.6 °F /  -1.9 °C 30.22in /  1023.2hPa Calm     50% 0.00in /  0mm
12:13 46.4 °F /  8 °C 28.8 °F /  -1.8 °C 30.22in /  1023.2hPa Calm   1.0mph /  1.6km/h 50% 0.00in /  0mm
12:19 46.6 °F /  8.1 °C 30.7 °F /  -0.7 °C 30.21in /  1022.9hPa Calm     54% 0.00in /  0mm
12:43 46.6 °F /  8.1 °C 28.9 °F /  -1.7 °C 30.20in /  1022.6hPa NW 0.9mph /  1.4km/h 1.0mph /  1.6km/h 50% 0.00in /  0mm
12:48 46.8 °F /  8.2 °C 29.1 °F /  -1.6 °C 30.19in /  1022.2hPa Calm     50% 0.00in /  0mm
12:59 47.5 °F /  8.6 °C 28.8 °F /  -1.8 °C 30.19in /  1022.2hPa Calm     48% 0.00in /  0mm
13:04 47.7 °F /  8.7 °C 27.9 °F /  -2.3 °C 30.19in /  1022.2hPa Calm     46% 0.00in /  0mm
13:09 47.5 °F /  8.6 °C 27.1 °F /  -2.7 °C 30.19in /  1022.2hPa NNW 0.9mph /  1.4km/h 4.0mph /  6.4km/h 45% 0.00in /  0mm
13:17 47.7 °F /  8.7 °C 27.9 °F /  -2.3 °C 30.18in /  1021.9hPa Calm   1.0mph /  1.6km/h 46% 0.00in /  0mm
13:22 47.7 °F /  8.7 °C 28.9 °F /  -1.7 °C 30.18in /  1021.9hPa Calm   5.0mph /  8km/h 48% 0.00in /  0mm
13:27 47.5 °F /  8.6 °C 27.7 °F /  -2.4 °C 30.18in /  1021.9hPa Calm   1.0mph /  1.6km/h 46% 0.00in /  0mm
13:32 47.5 °F /  8.6 °C 28.8 °F /  -1.8 °C 30.18in /  1021.9hPa Calm   1.0mph /  1.6km/h 48% 0.00in /  0mm
13:37 47.5 °F /  8.6 °C 28.8 °F /  -1.8 °C 30.17in /  1021.6hPa Calm   1.0mph /  1.6km/h 48% 0.00in /  0mm
13:42 47.5 °F /  8.6 °C 28.2 °F /  -2.1 °C 30.17in /  1021.6hPa Calm   1.0mph /  1.6km/h 47% 0.00in /  0mm
13:47 47.7 °F /  8.7 °C 28.4 °F /  -2 °C 30.17in /  1021.6hPa Calm   4.0mph /  6.4km/h 47% 0.00in /  0mm
13:53 47.7 °F /  8.7 °C 29.5 °F /  -1.4 °C 30.17in /  1021.6hPa Calm     49% 0.00in /  0mm
14:03 47.7 °F /  8.7 °C 28.9 °F /  -1.7 °C 30.17in /  1021.6hPa WNW 2.9mph /  4.7km/h 3.0mph /  4.8km/h 48% 0.00in /  0mm
14:19 47.7 °F /  8.7 °C 29.5 °F /  -1.4 °C 30.16in /  1021.2hPa Calm     49% 0.00in /  0mm
14:34 47.8 °F /  8.8 °C 32.0 °F /  0 °C 30.16in /  1021.2hPa Calm   4.0mph /  6.4km/h 54% 0.00in /  0mm
14:44 47.8 °F /  8.8 °C 32.5 °F /  0.3 °C 30.17in /  1021.6hPa Calm     55% 0.00in /  0mm
14:50 47.8 °F /  8.8 °C 33.3 °F /  0.7 °C 30.16in /  1021.2hPa Calm     57% 0.00in /  0mm
14:55 47.7 °F /  8.7 °C 32.4 °F /  0.2 °C 30.16in /  1021.2hPa Calm     55% 0.00in /  0mm
15:00 47.8 °F /  8.8 °C 32.5 °F /  0.3 °C 30.16in /  1021.2hPa Calm     55% 0.00in /  0mm
15:26 47.8 °F /  8.8 °C 31.1 °F /  -0.5 °C 30.16in /  1021.2hPa Calm     52% 0in /  0mm
15:32 47.7 °F /  8.7 °C 29.5 °F /  -1.4 °C 30.16in /  1021.2hPa Calm   4.0mph /  6.4km/h 49% 0.00in /  0mm
15:37 47.7 °F /  8.7 °C 30.0 °F /  -1.1 °C 30.16in /  1021.2hPa Calm   1.0mph /  1.6km/h 50% 0.00in /  0mm
15:42 47.7 °F /  8.7 °C 30.0 °F /  -1.1 °C 30.16in /  1021.2hPa Calm   1.0mph /  1.6km/h 50% 0.00in /  0mm
15:47 47.5 °F /  8.6 °C 29.3 °F /  -1.5 °C 30.16in /  1021.2hPa Calm   4.0mph /  6.4km/h 49% 0.00in /  0mm
16:03 46.9 °F /  8.3 °C 28.8 °F /  -1.8 °C 30.17in /  1021.6hPa Calm     49% 0.00in /  0mm
16:26 46.0 °F /  7.8 °C 28.9 °F /  -1.7 °C 30.17in /  1021.6hPa Calm     51% 0in /  0mm
16:31 45.9 °F /  7.7 °C 29.3 °F /  -1.5 °C 30.17in /  1021.6hPa Calm   1.0mph /  1.6km/h 52% 0.00in /  0mm
16:42 45.7 °F /  7.6 °C 30.4 °F /  -0.9 °C 30.18in /  1021.9hPa Calm     55% 0.00in /  0mm
16:47 45.5 °F /  7.5 °C 29.8 °F /  -1.2 °C 30.18in /  1021.9hPa Calm   5.0mph /  8km/h 54% 0.00in /  0mm
16:52 45.3 °F /  7.4 °C 29.7 °F /  -1.3 °C 30.18in /  1021.9hPa Calm     54% 0.00in /  0mm
17:02 45.1 °F /  7.3 °C 30.4 °F /  -0.9 °C 30.18in /  1021.9hPa Calm     56% 0.00in /  0mm
17:07 45.0 °F /  7.2 °C 31.1 °F /  -0.5 °C 30.18in /  1021.9hPa Calm     58% 0.00in /  0mm
17:13 44.8 °F /  7.1 °C 30.9 °F /  -0.6 °C 30.19in /  1022.2hPa Calm     58% 0.00in /  0mm
17:28 44.2 °F /  6.8 °C 30.0 °F /  -1.1 °C 30.17in /  1021.6hPa Calm   1.0mph /  1.6km/h 57% 0.00in /  0mm
17:38 44.1 °F /  6.7 °C 29.8 °F /  -1.2 °C 30.17in /  1021.6hPa Calm   1.0mph /  1.6km/h 57% 0.00in /  0mm
17:43 43.9 °F /  6.6 °C 29.7 °F /  -1.3 °C 30.16in /  1021.2hPa Calm     57% 0.00in /  0mm
17:54 43.5 °F /  6.4 °C 30.2 °F /  -1 °C 30.17in /  1021.6hPa Calm     59% 0.00in /  0mm
17:59 43.5 °F /  6.4 °C 31.3 °F /  -0.4 °C 30.17in /  1021.6hPa Calm     62% 0.00in /  0mm
18:09 43.3 °F /  6.3 °C 30.7 °F /  -0.7 °C 30.17in /  1021.6hPa Calm     61% 0.00in /  0mm
18:14 43.2 °F /  6.2 °C 31.8 °F /  -0.1 °C 30.17in /  1021.6hPa Calm     64% 0.00in /  0mm
18:19 43.2 °F /  6.2 °C 31.5 °F /  -0.3 °C 30.17in /  1021.6hPa Calm     63% 0.00in /  0mm
18:24 43.2 °F /  6.2 °C 31.8 °F /  -0.1 °C 30.18in /  1021.9hPa Calm     64% 0.00in /  0mm
18:29 43.0 °F /  6.1 °C 31.6 °F /  -0.2 °C 30.18in /  1021.9hPa Calm     64% 0.00in /  0mm
18:35 42.8 °F /  6 °C 31.8 °F /  -0.1 °C 30.18in /  1021.9hPa Calm     65% 0.00in /  0mm
18:46 42.6 °F /  5.9 °C 32.0 °F /  0 °C 30.16in /  1021.2hPa Calm     66% 0.00in /  0mm
18:51 42.4 °F /  5.8 °C 31.8 °F /  -0.1 °C 30.17in /  1021.6hPa Calm     66% 0.00in /  0mm
18:56 42.3 °F /  5.7 °C 32.5 °F /  0.3 °C 30.16in /  1021.2hPa Calm     68% 0.00in /  0mm
19:06 42.1 °F /  5.6 °C 32.0 °F /  0 °C 30.17in /  1021.6hPa Calm     67% 0.00in /  0mm
19:16 41.9 °F /  5.5 °C 31.8 °F /  -0.1 °C 30.17in /  1021.6hPa Calm     67% 0.00in /  0mm
19:21 41.7 °F /  5.4 °C 32.4 °F /  0.2 °C 30.17in /  1021.6hPa Calm     69% 0.00in /  0mm
19:32 41.5 °F /  5.3 °C 32.5 °F /  0.3 °C 30.17in /  1021.6hPa Calm     70% 0.00in /  0mm
19:37 41.5 °F /  5.3 °C 32.5 °F /  0.3 °C 30.18in /  1021.9hPa Calm     70% 0.00in /  0mm
19:42 41.4 °F /  5.2 °C 33.1 °F /  0.6 °C 30.18in /  1021.9hPa Calm     72% 0.00in /  0mm
19:52 41.0 °F /  5 °C 34.0 °F /  1.1 °C 30.17in /  1021.6hPa Calm     76% 0.00in /  0mm
19:57 40.8 °F /  4.9 °C 32.5 °F /  0.3 °C 30.17in /  1021.6hPa Calm     72% 0.00in /  0mm
20:03 40.6 °F /  4.8 °C 32.7 °F /  0.4 °C 30.16in /  1021.2hPa Calm     73% 0.00in /  0mm
20:08 40.5 °F /  4.7 °C 32.9 °F /  0.5 °C 30.16in /  1021.2hPa Calm     74% 0.00in /  0mm
20:13 40.1 °F /  4.5 °C 32.5 °F /  0.3 °C 30.16in /  1021.2hPa Calm     74% 0.00in /  0mm
20:24 39.7 °F /  4.3 °C 32.7 °F /  0.4 °C 30.17in /  1021.6hPa Calm     76% 0.00in /  0mm
20:29 39.7 °F /  4.3 °C 33.1 °F /  0.6 °C 30.17in /  1021.6hPa Calm     77% 0.00in /  0mm
20:34 39.7 °F /  4.3 °C 33.1 °F /  0.6 °C 30.17in /  1021.6hPa Calm     77% 0.00in /  0mm
20:39 39.6 °F /  4.2 °C 33.3 °F /  0.7 °C 30.16in /  1021.2hPa Calm     78% 0.00in /  0mm
20:44 39.6 °F /  4.2 °C 33.6 °F /  0.9 °C 30.17in /  1021.6hPa Calm     79% 0.00in /  0mm
20:55 39.6 °F /  4.2 °C 33.3 °F /  0.7 °C 30.17in /  1021.6hPa Calm     78% 0.00in /  0mm
21:00 39.6 °F /  4.2 °C 33.3 °F /  0.7 °C 30.17in /  1021.6hPa Calm     78% 0.00in /  0mm
21:05 39.4 °F /  4.1 °C 33.1 °F /  0.6 °C 30.17in /  1021.6hPa Calm     78% 0.00in /  0mm
21:10 39.4 °F /  4.1 °C 33.1 °F /  0.6 °C 30.17in /  1021.6hPa Calm     78% 0.00in /  0mm
21:15 39.4 °F /  4.1 °C 33.4 °F /  0.8 °C 30.17in /  1021.6hPa Calm     79% 0.00in /  0mm
21:20 39.4 °F /  4.1 °C 33.4 °F /  0.8 °C 30.17in /  1021.6hPa Calm     79% 0.00in /  0mm
21:25 39.4 °F /  4.1 °C 33.4 °F /  0.8 °C 30.17in /  1021.6hPa Calm     79% 0.00in /  0mm
21:30 39.6 °F /  4.2 °C 33.6 °F /  0.9 °C 30.16in /  1021.2hPa Calm     79% 0.00in /  0mm
21:36 39.6 °F /  4.2 °C 32.5 °F /  0.3 °C 30.16in /  1021.2hPa Calm     76% 0.00in /  0mm
21:41 39.7 °F /  4.3 °C 33.8 °F /  1 °C 30.16in /  1021.2hPa Calm     79% 0.00in /  0mm
21:51 39.7 °F /  4.3 °C 33.1 °F /  0.6 °C 30.16in /  1021.2hPa Calm     77% 0.00in /  0mm
22:02 39.9 °F /  4.4 °C 32.9 °F /  0.5 °C 30.16in /  1021.2hPa Calm     76% 0.00in /  0mm
22:16 39.9 °F /  4.4 °C 32.0 °F /  0 °C 30.16in /  1021.2hPa Calm   5.0mph /  8km/h 73% 0.00in /  0mm
22:21 40.3 °F /  4.6 °C 31.6 °F /  -0.2 °C 30.16in /  1021.2hPa Calm   1.0mph /  1.6km/h 71% 0.00in /  0mm
22:26 40.5 °F /  4.7 °C 30.7 °F /  -0.7 °C 30.16in /  1021.2hPa Calm   1.0mph /  1.6km/h 68% 0.00in /  0mm
22:31 40.5 °F /  4.7 °C 30.7 °F /  -0.7 °C 30.16in /  1021.2hPa Calm     68% 0.00in /  0mm
22:39 40.6 °F /  4.8 °C 29.8 °F /  -1.2 °C 30.16in /  1021.2hPa Calm   1.0mph /  1.6km/h 65% 0.00in /  0mm
22:44 40.8 °F /  4.9 °C 29.7 °F /  -1.3 °C 30.16in /  1021.2hPa Calm   3.0mph /  4.8km/h 64% 0.00in /  0mm
22:49 40.8 °F /  4.9 °C 29.7 °F /  -1.3 °C 30.16in /  1021.2hPa Calm   1.0mph /  1.6km/h 64% 0.00in /  0mm
23:00 41.0 °F /  5 °C 30.2 °F /  -1 °C 30.16in /  1021.2hPa Calm   1.0mph /  1.6km/h 65% 0.00in /  0mm
23:05 40.8 °F /  4.9 °C 28.8 °F /  -1.8 °C 30.16in /  1021.2hPa East 2.0mph /  3.2km/h 2.0mph /  3.2km/h 62% 0.00in /  0mm
23:10 40.8 °F /  4.9 °C 29.1 °F /  -1.6 °C 30.16in /  1021.2hPa Calm   1.0mph /  1.6km/h 63% 0.00in /  0mm
23:15 40.8 °F /  4.9 °C 29.7 °F /  -1.3 °C 30.16in /  1021.2hPa Calm     64% 0.00in /  0mm
23:30 40.5 °F /  4.7 °C 29.7 °F /  -1.3 °C 30.16in /  1021.2hPa Calm     65% 0.00in /  0mm
23:35 40.3 °F /  4.6 °C 28.8 °F /  -1.8 °C 30.15in /  1020.9hPa Calm     63% 0.00in /  0mm
23:40 40.3 °F /  4.6 °C 29.5 °F /  -1.4 °C 30.15in /  1020.9hPa Calm     65% 0.00in /  0mm
23:45 40.3 °F /  4.6 °C 29.5 °F /  -1.4 °C 30.16in /  1021.2hPa Calm   2.0mph /  3.2km/h 65% 0.00in /  0mm
23:56 40.3 °F /  4.6 °C 29.8 °F /  -1.2 °C 30.15in /  1020.9hPa Calm   2.0mph /  3.2km/h 66% 0.00in /  0mm
Ellijay Weather
Compliments of Weather Underground - 2 mb